map of AGR home
Great Circle Mapper logo
AGR - Airport
Location
City:  Agra, Uttar Pradesh, India
Name:Kheria
ICAO:VIAG
IATA:AGR

Details
Type:Airport (Aerodrome, Airfield)
Use:Military
Latitude:2709'21"N (27.155831)
Longitude:7757'39"E (77.960892)
Datum:WGS 1984
Elevation:551 ft (168 m)
Variation:0.82E (WMM2015 magnetic declination)
0.06 annual change
Runways:2
Longest:9000 × 148 ft (2743 × 45 m), paved

Time
Time Zone:UTC+5:30
Local Time:

Weather
METAR:VIAG 301330Z 07004KT 6000 FEW025 BKN250 38/24 Q0996 NOSIG

Related Locations
Nearby:
Farthest:IPC: 11992 mi / 19299 km
Easter Island (Isla de Pascua, Rapa Nui) [Mataveri Intl], VS, CL

Find:

   beyond  
but within

Other Information
Maps:
NOTAMs:
Links:
Sources:

  
flag of India   

Sectional Chart

Flight Planning
at skyvector.com

Satellite Image

Google Maps Satellite view

 

Copyright © 2004-2016 Karl L. Swartz. All rights reserved.
The Great Circle Mapper name and logo are trademarks of the Great Circle Mapper.
All other trademarks mentioned herein belong to their respective owners.
Please see credits for attibutions and further copyright information.

  Follow gcmap on Facebook Follow gcmap on Twitter Follow gcmap on Google+ GCmap on LinkedIn

hCard Microformat

Geo Microformat